Orsola Bottiglieri — ICQN — position and weather

sailwx.info

Track history (hours):
 
Tides and Currents Weather Stations Pressure Air Temp Water Temp Dewpoint Dewpoint Depression Visibility Wind Speed Wind Dir Waves Ship Positions

Orsola Bottiglieri

Last reported at 2016-Jul-24 02:31 UTC. Time now 2016-Jul-24 02:55 UTC.
Position N 30°49' E 122°33'.

Length 292 m; draft 8.2 m.

Type: Cargo ship. MMSI: 247304400.

Date/timePositionNaut miles runAvg speedWind from/ knotsBaromVisibWave heightAir tempDewpointWater temp
2016-Jul-24 02:31N 30°49' E 122°33'0 0.2
2016-Jul-24 01:07N 30°49' E 122°34'0 0.1
2016-Jul-24 00:31N 30°49' E 122°34'0 0.0
2016-Jul-23 22:31N 30°49' E 122°34'0 0.0
2016-Jul-23 21:19N 30°49' E 122°34'0 0.1
2016-Jul-23 19:19N 30°49' E 122°34'0 0.1
2016-Jul-23 13:31N 30°49' E 122°33'0 0.1
2016-Jul-23 12:19N 30°49' E 122°34'0 0.0
2016-Jul-22 12:22N 30°49' E 122°33'0 0.1
2016-Jul-22 06:25N 30°49' E 122°34'0 0.0
2016-Jul-21 18:07N 30°49' E 122°34'0 0.0
2016-Jul-21 10:25N 30°49' E 122°34'1 0.1
2016-Jul-20 23:08N 30°49' E 122°34'6 3.7
2016-Jul-20 21:33N 30°54' E 122°32'11 9.7
2016-Jul-20 20:24N 31°05' E 122°32'1113.1
2016-Jul-20 19:32N 31°06' E 122°18'1414.3
2016-Jul-20 18:33N 31°14' E 122°05'1312.8
2016-Jul-20 17:33N 31°17' E 121°50'1111.0
2016-Jul-20 16:32N 31°21' E 121°38'8 8.6
2016-Jul-20 15:33N 31°26' E 121°30'9 8.7
2016-Jul-20 14:33N 31°31' E 121°22'1312.7
2016-Jul-20 13:33N 31°40' E 121°12'3 2.6
2016-Jul-20 12:26N 31°42' E 121°09'0 0.0
2016-Jul-20 11:32N 31°42' E 121°09'0 0.0
2016-Jul-20 10:08N 31°42' E 121°09'0 0.0
2016-Jul-20 09:32N 31°42' E 121°09'0 0.0
2016-Jul-20 08:32N 31°42' E 121°09'0 0.0
2016-Jul-20 07:32N 31°42' E 121°09'0 0.0
2016-Jul-20 06:29N 31°42' E 121°09'0 0.0
2016-Jul-20 04:29N 31°42' E 121°09'0 0.0
2016-Jul-20 03:32N 31°42' E 121°09'0 0.0
2016-Jul-20 02:32N 31°42' E 121°09'0 0.0
2016-Jul-20 01:32N 31°42' E 121°09'0 0.0
2016-Jul-20 00:26N 31°42' E 121°09'0 0.0
2016-Jul-19 23:32N 31°42' E 121°09'0 0.0
2016-Jul-19 22:32N 31°42' E 121°09'0 0.0
2016-Jul-19 21:32N 31°42' E 121°09'0 0.0
2016-Jul-19 20:29N 31°42' E 121°09'0 0.0
2016-Jul-19 19:32N 31°42' E 121°09'0 0.0
2016-Jul-19 18:11N 31°42' E 121°09'0 0.0
2016-Jul-19 17:14N 31°42' E 121°09'0 0.0
2016-Jul-19 16:32N 31°42' E 121°09'0 0.0
2016-Jul-19 15:29N 31°42' E 121°09'0 0.0
2016-Jul-19 14:26N 31°42' E 121°09'0 0.0
2016-Jul-19 13:29N 31°42' E 121°09'0 0.0
2016-Jul-19 12:32N 31°42' E 121°09'0 0.0
2016-Jul-19 10:32N 31°42' E 121°09'0 0.0
2016-Jul-19 09:32N 31°42' E 121°09'0 0.0
2016-Jul-19 08:26N 31°42' E 121°09'0 0.0
2016-Jul-19 07:26N 31°42' E 121°09'0 0.0
2016-Jul-19 03:11N 31°42' E 121°09'0 0.0
2016-Jul-18 19:11N 31°42' E 121°09'0 0.0
2016-Jul-18 18:32N 31°42' E 121°09'0 0.0
2016-Jul-18 17:29N 31°42' E 121°09'0 0.0
2016-Jul-18 16:11N 31°42' E 121°09'0 0.0
2016-Jul-18 15:32N 31°42' E 121°09'0 0.0
2016-Jul-18 14:32N 31°42' E 121°09'0 0.0
2016-Jul-18 13:32N 31°42' E 121°09'0 0.0
2016-Jul-18 12:29N 31°42' E 121°09'0 0.0
2016-Jul-18 11:26N 31°42' E 121°09'0 0.0
2016-Jul-18 10:23N 31°42' E 121°09'0 0.2
2016-Jul-18 09:33N 31°42' E 121°09'5 5.0
2016-Jul-18 08:34N 31°39' E 121°14'5 5.1
2016-Jul-18 07:33N 31°36' E 121°19'0 0.1
2016-Jul-18 06:33N 31°36' E 121°19'1 0.8
2016-Jul-18 05:33N 31°35' E 121°19'9 9.3
2016-Jul-18 04:33N 31°29' E 121°27'9 8.6
2016-Jul-18 03:33N 31°23' E 121°35'9 8.6
2016-Jul-18 02:31N 31°19' E 121°44'108 5.4
2016-Jul-17 06:33N 29°40' E 122°35'2311.6
2016-Jul-17 04:33N 29°51' E 122°11'1110.8
2016-Jul-17 03:33N 29°56' E 122°00'7 2.3
2016-Jul-17 00:33N 29°57' E 121°52'1 0.5
2016-Jul-16 22:29N 29°56' E 121°53'0 0.0
2016-Jul-16 21:29N 29°56' E 121°53'0 0.0
2016-Jul-16 19:11N 29°56' E 121°53'0 0.0
2016-Jul-16 18:29N 29°56' E 121°53'0 0.0
2016-Jul-16 17:23N 29°56' E 121°53'0 0.0
2016-Jul-16 16:29N 29°56' E 121°53'0 0.0
2016-Jul-16 10:29N 29°56' E 121°53'0 0.0
2016-Jul-16 09:29N 29°56' E 121°53'0 0.0
2016-Jul-16 08:11N 29°56' E 121°53'0 0.0
2016-Jul-16 04:32N 29°56' E 121°53'0 0.0
2016-Jul-16 02:28N 29°56' E 121°53'0 0.0
2016-Jul-16 01:22N 29°56' E 121°53'0 0.0
2016-Jul-16 00:28N 29°56' E 121°53'0 0.0
2016-Jul-15 23:08N 29°56' E 121°53'0 0.0
2016-Jul-15 22:16N 29°56' E 121°53'0 0.0
2016-Jul-15 21:28N 29°56' E 121°53'0 0.0
2016-Jul-15 20:22N 29°56' E 121°53'0 0.0
2016-Jul-15 19:19N 29°56' E 121°53'0 0.0
2016-Jul-15 16:28N 29°56' E 121°53'0 0.0
2016-Jul-15 15:13N 29°56' E 121°53'0 0.0
2016-Jul-15 13:09N 29°56' E 121°53'0 0.8
2016-Jul-15 12:33N 29°57' E 121°54'0 0.4
2016-Jul-15 11:33N 29°57' E 121°53'0 0.1
2016-Jul-15 09:29N 29°57' E 121°53'0 0.1
2016-Jul-15 08:30N 29°57' E 121°53'0 0.1
2016-Jul-15 05:24N 29°57' E 121°53'5 6.1
2016-Jul-15 04:33N 29°58' E 121°59'7 7.3
2016-Jul-15 03:33N 29°55' E 122°07'7 6.7
2016-Jul-15 02:33N 29°50' E 122°13'8 7.8
2016-Jul-15 01:33N 29°45' E 122°19'6 5.6
2016-Jul-15 00:33N 29°43' E 122°25'7 6.1
2016-Jul-14 23:29N 29°41' E 122°32'7 1.2
2016-Jul-14 17:26N 29°41' E 122°40'  
Track history (hours):
 
Tides and Currents Weather Stations Pressure Air Temp Water Temp Dewpoint Dewpoint Depression Visibility Wind Speed Wind Dir Waves Ship Positions

Orsola Bottiglieri

Last reported at 2016-Jul-24 02:31 UTC. Time now 2016-Jul-24 02:55 UTC.
Position N 30°49' E 122°33'.

Length 292 m; draft 8.2 m.

Type: Cargo ship. MMSI: 247304400.

Date/timePositionNaut miles runAvg speedWind from/ knotsBaromVisibWave heightAir tempDewpointWater temp
2016-Jul-24 02:31N 30°49' E 122°33'0 0.2
2016-Jul-24 01:07N 30°49' E 122°34'0 0.1
2016-Jul-24 00:31N 30°49' E 122°34'0 0.0
2016-Jul-23 22:31N 30°49' E 122°34'0 0.0
2016-Jul-23 21:19N 30°49' E 122°34'0 0.1
2016-Jul-23 19:19N 30°49' E 122°34'0 0.1
2016-Jul-23 13:31N 30°49' E 122°33'0 0.1
2016-Jul-23 12:19N 30°49' E 122°34'0 0.0
2016-Jul-22 12:22N 30°49' E 122°33'0 0.1
2016-Jul-22 06:25N 30°49' E 122°34'0 0.0
2016-Jul-21 18:07N 30°49' E 122°34'0 0.0
2016-Jul-21 10:25N 30°49' E 122°34'1 0.1
2016-Jul-20 23:08N 30°49' E 122°34'6 3.7
2016-Jul-20 21:33N 30°54' E 122°32'11 9.7
2016-Jul-20 20:24N 31°05' E 122°32'1113.1
2016-Jul-20 19:32N 31°06' E 122°18'1414.3
2016-Jul-20 18:33N 31°14' E 122°05'1312.8
2016-Jul-20 17:33N 31°17' E 121°50'1111.0
2016-Jul-20 16:32N 31°21' E 121°38'8 8.6
2016-Jul-20 15:33N 31°26' E 121°30'9 8.7
2016-Jul-20 14:33N 31°31' E 121°22'1312.7
2016-Jul-20 13:33N 31°40' E 121°12'3 2.6
2016-Jul-20 12:26N 31°42' E 121°09'0 0.0
2016-Jul-20 11:32N 31°42' E 121°09'0 0.0
2016-Jul-20 10:08N 31°42' E 121°09'0 0.0
2016-Jul-20 09:32N 31°42' E 121°09'0 0.0
2016-Jul-20 08:32N 31°42' E 121°09'0 0.0
2016-Jul-20 07:32N 31°42' E 121°09'0 0.0
2016-Jul-20 06:29N 31°42' E 121°09'0 0.0
2016-Jul-20 04:29N 31°42' E 121°09'0 0.0
2016-Jul-20 03:32N 31°42' E 121°09'0 0.0
2016-Jul-20 02:32N 31°42' E 121°09'0 0.0
2016-Jul-20 01:32N 31°42' E 121°09'0 0.0
2016-Jul-20 00:26N 31°42' E 121°09'0 0.0
2016-Jul-19 23:32N 31°42' E 121°09'0 0.0
2016-Jul-19 22:32N 31°42' E 121°09'0 0.0
2016-Jul-19 21:32N 31°42' E 121°09'0 0.0
2016-Jul-19 20:29N 31°42' E 121°09'0 0.0
2016-Jul-19 19:32N 31°42' E 121°09'0 0.0
2016-Jul-19 18:11N 31°42' E 121°09'0 0.0
2016-Jul-19 17:14N 31°42' E 121°09'0 0.0
2016-Jul-19 16:32N 31°42' E 121°09'0 0.0
2016-Jul-19 15:29N 31°42' E 121°09'0 0.0
2016-Jul-19 14:26N 31°42' E 121°09'0 0.0
2016-Jul-19 13:29N 31°42' E 121°09'0 0.0
2016-Jul-19 12:32N 31°42' E 121°09'0 0.0
2016-Jul-19 10:32N 31°42' E 121°09'0 0.0
2016-Jul-19 09:32N 31°42' E 121°09'0 0.0
2016-Jul-19 08:26N 31°42' E 121°09'0 0.0
2016-Jul-19 07:26N 31°42' E 121°09'0 0.0
2016-Jul-19 03:11N 31°42' E 121°09'0 0.0
2016-Jul-18 19:11N 31°42' E 121°09'0 0.0
2016-Jul-18 18:32N 31°42' E 121°09'0 0.0
2016-Jul-18 17:29N 31°42' E 121°09'0 0.0
2016-Jul-18 16:11N 31°42' E 121°09'0 0.0
2016-Jul-18 15:32N 31°42' E 121°09'0 0.0
2016-Jul-18 14:32N 31°42' E 121°09'0 0.0
2016-Jul-18 13:32N 31°42' E 121°09'0 0.0
2016-Jul-18 12:29N 31°42' E 121°09'0 0.0
2016-Jul-18 11:26N 31°42' E 121°09'0 0.0
2016-Jul-18 10:23N 31°42' E 121°09'0 0.2
2016-Jul-18 09:33N 31°42' E 121°09'5 5.0
2016-Jul-18 08:34N 31°39' E 121°14'5 5.1
2016-Jul-18 07:33N 31°36' E 121°19'0 0.1
2016-Jul-18 06:33N 31°36' E 121°19'1 0.8
2016-Jul-18 05:33N 31°35' E 121°19'9 9.3
2016-Jul-18 04:33N 31°29' E 121°27'9 8.6
2016-Jul-18 03:33N 31°23' E 121°35'9 8.6
2016-Jul-18 02:31N 31°19' E 121°44'108 5.4
2016-Jul-17 06:33N 29°40' E 122°35'2311.6
2016-Jul-17 04:33N 29°51' E 122°11'1110.8
2016-Jul-17 03:33N 29°56' E 122°00'7 2.3
2016-Jul-17 00:33N 29°57' E 121°52'1 0.5
2016-Jul-16 22:29N 29°56' E 121°53'0 0.0
2016-Jul-16 21:29N 29°56' E 121°53'0 0.0
2016-Jul-16 19:11N 29°56' E 121°53'0 0.0
2016-Jul-16 18:29N 29°56' E 121°53'0 0.0
2016-Jul-16 17:23N 29°56' E 121°53'0 0.0
2016-Jul-16 16:29N 29°56' E 121°53'0 0.0
2016-Jul-16 10:29N 29°56' E 121°53'0 0.0
2016-Jul-16 09:29N 29°56' E 121°53'0 0.0
2016-Jul-16 08:11N 29°56' E 121°53'0 0.0
2016-Jul-16 04:32N 29°56' E 121°53'0 0.0
2016-Jul-16 02:28N 29°56' E 121°53'0 0.0
2016-Jul-16 01:22N 29°56' E 121°53'0 0.0
2016-Jul-16 00:28N 29°56' E 121°53'0 0.0
2016-Jul-15 23:08N 29°56' E 121°53'0 0.0
2016-Jul-15 22:16N 29°56' E 121°53'0 0.0
2016-Jul-15 21:28N 29°56' E 121°53'0 0.0
2016-Jul-15 20:22N 29°56' E 121°53'0 0.0
2016-Jul-15 19:19N 29°56' E 121°53'0 0.0
2016-Jul-15 16:28N 29°56' E 121°53'0 0.0
2016-Jul-15 15:13N 29°56' E 121°53'0 0.0
2016-Jul-15 13:09N 29°56' E 121°53'0 0.8
2016-Jul-15 12:33N 29°57' E 121°54'0 0.4
2016-Jul-15 11:33N 29°57' E 121°53'0 0.1
2016-Jul-15 09:29N 29°57' E 121°53'0 0.1
2016-Jul-15 08:30N 29°57' E 121°53'0 0.1
2016-Jul-15 05:24N 29°57' E 121°53'5 6.1
2016-Jul-15 04:33N 29°58' E 121°59'7 7.3
2016-Jul-15 03:33N 29°55' E 122°07'7 6.7
2016-Jul-15 02:33N 29°50' E 122°13'8 7.8
2016-Jul-15 01:33N 29°45' E 122°19'6 5.6
2016-Jul-15 00:33N 29°43' E 122°25'7 6.1
2016-Jul-14 23:29N 29°41' E 122°32'7 1.2
2016-Jul-14 17:26N 29°41' E 122°40'  

Dump ship's entire track history